Time;durP1;ratioP1;P1;durP2;ratioP2;P2;SDS_P1;SDS_P2;PMS_P1;PMS_P2;Temp;Humidity;BMP_temperature;BMP_pressure;BME280_temperature;BME280_humidity;BME280_pressure;Samples;Min_cycle;Max_cycle;Signal;HPM_P1;HPM_P2
2024/03/14 00:01:28;;;;;;;8.52;6.03;;;8.20;99.90;;;7.57;100.00;100911.09;4138048;28;20031;-68
2024/03/14 00:03:29;;;;;;;9.15;6.35;;;8.20;99.90;;;7.52;100.00;100901.97;4137710;28;20048;-68
2024/03/14 00:05:29;;;;;;;10.60;6.00;;;8.20;99.90;;;7.54;100.00;100905.28;4120709;28;20030;-68
2024/03/14 00:07:30;;;;;;;9.57;6.03;;;8.20;99.90;;;7.51;100.00;100897.66;4137822;28;20083;-68
2024/03/14 00:09:31;;;;;;;8.95;5.72;;;8.20;99.90;;;7.52;100.00;100892.28;4136893;28;20058;-68
2024/03/14 00:11:32;;;;;;;12.73;7.80;;;8.20;99.90;;;7.53;100.00;100898.34;4138025;28;20018;-68
2024/03/14 00:13:33;;;;;;;12.38;6.95;;;8.20;99.90;;;7.52;100.00;100897.53;4137857;28;20035;-68
2024/03/14 00:15:34;;;;;;;10.88;7.07;;;8.20;99.90;;;7.52;100.00;100896.72;4137576;28;20410;-68
2024/03/14 00:17:37;;;;;;;17.52;8.68;;;8.20;99.90;;;7.53;100.00;100900.97;4137734;28;20030;-68
2024/03/14 00:19:39;;;;;;;13.88;9.27;;;8.20;99.90;;;7.53;100.00;100903.59;4137723;28;20494;-68
2024/03/14 00:21:41;;;;;;;15.60;8.80;;;8.20;99.90;;;7.52;100.00;100907.19;4136430;28;20034;-69
2024/03/14 00:23:44;;;;;;;15.00;9.13;;;8.20;99.90;;;7.52;100.00;100901.97;4120174;28;20023;-68
2024/03/14 00:25:46;;;;;;;15.88;9.07;;;8.20;99.90;;;7.52;100.00;100896.72;4137682;28;20029;-68
2024/03/14 00:27:47;;;;;;;16.27;10.07;;;8.10;99.90;;;7.53;100.00;100898.34;4137569;28;20022;-68
2024/03/14 00:29:47;;;;;;;19.92;10.73;;;8.10;99.90;;;7.55;100.00;100892.03;4127831;28;20464;-68
2024/03/14 00:31:48;;;;;;;19.00;10.52;;;8.20;99.90;;;7.58;100.00;100891.75;4147078;28;20502;-68
2024/03/14 00:33:49;;;;;;;15.80;10.15;;;8.20;99.90;;;7.60;100.00;100884.56;4136986;28;20498;-68
2024/03/14 00:35:50;;;;;;;17.27;10.18;;;8.20;99.90;;;7.63;100.00;100900.06;4137478;28;20031;-68
2024/03/14 00:37:51;;;;;;;14.98;8.52;;;8.30;99.90;;;7.61;100.00;100909.88;4137375;28;20030;-68
2024/03/14 00:39:52;;;;;;;12.77;7.50;;;8.30;99.90;;;7.57;100.00;100908.47;4136207;28;20033;-68
2024/03/14 00:41:53;;;;;;;21.38;9.20;;;8.20;99.90;;;7.54;100.00;100895.59;4137399;28;20019;-68
2024/03/14 00:43:54;;;;;;;14.60;9.93;;;8.20;99.90;;;7.55;100.00;100897.28;4137335;28;20026;-68
2024/03/14 00:45:56;;;;;;;17.08;10.00;;;8.20;99.90;;;7.55;100.00;100886.78;4137378;28;20077;-68
2024/03/14 00:47:57;;;;;;;17.70;9.27;;;8.20;99.90;;;7.55;100.00;100886.78;4136236;28;20110;-68
2024/03/14 00:49:58;;;;;;;15.35;9.40;;;8.20;99.90;;;7.59;100.00;100893.41;4135832;28;20018;-68
2024/03/14 00:51:59;;;;;;;13.52;8.80;;;8.30;99.90;;;7.59;100.00;100888.16;4137258;28;20026;-68
2024/03/14 00:54:05;;;;;;;16.27;9.35;;;8.20;99.90;;;7.58;100.00;100885.69;4137190;28;20023;-68
2024/03/14 00:56:09;;;;;;;14.77;9.45;;;8.20;99.90;;;7.57;100.00;100887.47;4137051;28;20058;-69
2024/03/14 00:58:11;;;;;;;12.00;9.20;;;8.20;99.90;;;7.55;100.00;100873.66;4135355;28;20026;-68
2024/03/14 01:00:14;;;;;;;21.05;8.77;;;8.20;99.90;;;7.59;100.00;100877.66;4137031;28;20030;-68
2024/03/14 01:02:15;;;;;;;19.85;10.27;;;8.30;99.90;;;7.57;100.00;100876.97;4135985;28;20042;-68
2024/03/14 01:04:17;;;;;;;13.15;8.48;;;8.20;99.90;;;7.55;100.00;100876.28;4136947;28;20064;-68
2024/03/14 01:06:19;;;;;;;13.15;8.43;;;8.20;99.90;;;7.56;100.00;100877.91;4137100;28;20093;-68
2024/03/14 01:08:20;;;;;;;13.77;8.48;;;8.20;99.90;;;7.54;100.00;100874.59;4137015;28;20470;-68
2024/03/14 01:10:21;;;;;;;13.00;8.68;;;8.20;99.90;;;7.55;100.00;100871.03;4137075;28;20018;-68
2024/03/14 01:12:22;;;;;;;15.82;10.23;;;8.20;99.90;;;7.51;100.00;100856.50;4137085;28;20026;-68
2024/03/14 01:14:23;;;;;;;15.30;9.88;;;8.20;99.90;;;7.53;100.00;100851.09;4135771;28;20026;-68
2024/03/14 01:16:23;;;;;;;14.43;8.95;;;8.20;99.90;;;7.55;100.00;100844.78;4136722;28;20498;-68
2024/03/14 01:18:24;;;;;;;12.40;8.68;;;8.20;99.90;;;7.54;100.00;100837.84;4135319;28;20022;-68
2024/03/14 01:20:25;;;;;;;11.15;8.20;;;8.20;99.90;;;7.57;100.00;100831.50;4136893;28;20030;-68
2024/03/14 01:22:26;;;;;;;11.65;8.60;;;8.20;99.90;;;7.56;100.00;100830.66;4136756;28;20549;-68
2024/03/14 01:24:27;;;;;;;11.68;8.52;;;8.20;99.90;;;7.56;100.00;100830.66;4136782;28;20068;-68
2024/03/14 01:26:28;;;;;;;12.48;8.27;;;8.20;99.90;;;7.56;100.00;100835.91;4135511;28;20045;-68
2024/03/14 01:28:29;;;;;;;13.00;8.55;;;8.20;99.90;;;7.53;100.00;100836.19;4119006;28;20035;-68
2024/03/14 01:30:30;;;;;;;13.85;8.80;;;8.20;99.90;;;7.53;100.00;100824.84;4119312;28;20430;-69
2024/03/14 01:32:32;;;;;;;12.68;9.80;;;8.20;99.90;;;7.53;100.00;100830.94;4136565;28;20037;-69
2024/03/14 01:34:33;;;;;;;17.25;9.70;;;8.10;99.90;;;7.51;100.00;100827.63;4136307;28;20031;-68
2024/03/14 01:36:37;;;;;;;14.35;8.55;;;8.10;99.90;;;7.49;100.00;100824.31;4136614;28;20509;-68
2024/03/14 01:38:38;;;;;;;15.80;8.88;;;8.10;99.90;;;7.45;100.00;100828.16;4136479;28;20038;-68
2024/03/14 01:40:39;;;;;;;16.58;9.70;;;8.10;99.90;;;7.42;100.00;100832.84;4136220;28;20491;-68
2024/03/14 01:42:43;;;;;;;21.20;9.85;;;8.00;99.90;;;7.34;100.00;100815.16;4135371;28;20037;-68
2024/03/14 01:44:59;;;;;;;19.52;8.85;;;8.00;99.90;;;7.31;100.00;100818.03;4135393;28;20026;-68
2024/03/14 01:46:59;;;;;;;14.48;9.18;;;7.90;99.90;;;7.27;100.00;100819.25;4136547;28;20014;-68
2024/03/14 01:49:02;;;;;;;17.13;10.57;;;7.90;99.90;;;7.23;100.00;100818.69;4136026;28;20085;-68
2024/03/14 01:51:03;;;;;;;13.00;9.05;;;7.90;99.90;;;7.16;100.00;100814.13;4136691;28;20022;-68
2024/03/14 01:53:04;;;;;;;16.00;10.45;;;7.80;99.90;;;7.13;100.00;100819.63;4136412;28;20030;-68
2024/03/14 01:55:08;;;;;;;16.52;10.35;;;7.80;99.90;;;7.07;100.00;100813.13;4136363;28;20019;-68
2024/03/14 01:57:10;;;;;;;19.17;10.07;;;7.70;99.90;;;7.03;100.00;100810.88;4136228;28;20482;-68
2024/03/14 01:59:13;;;;;;;15.23;9.38;;;7.70;99.90;;;6.99;100.00;100805.06;4136435;28;20501;-68
2024/03/14 02:01:14;;;;;;;15.63;9.63;;;7.60;99.90;;;6.95;100.00;100802.84;4136188;28;20037;-68
2024/03/14 02:03:15;;;;;;;19.13;9.45;;;7.60;99.90;;;6.90;100.00;100805.03;4136041;28;20030;-68
2024/03/14 02:05:50;;;;;;;16.27;9.32;;;7.60;99.90;;;6.86;100.00;100801.00;4134935;28;20022;-68
2024/03/14 02:07:51;;;;;;;18.02;9.07;;;7.50;99.90;;;6.80;100.00;100788.41;4135297;28;20450;-68
2024/03/14 02:09:52;;;;;;;16.65;9.32;;;7.50;99.90;;;6.80;100.00;100791.03;4136231;28;20038;-68
2024/03/14 02:11:53;;;;;;;12.57;8.20;;;7.40;99.90;;;6.73;100.00;100782.88;4136043;28;20019;-68
2024/03/14 02:13:55;;;;;;;13.57;8.50;;;7.40;99.90;;;6.74;100.00;100794.19;4135019;28;20030;-68
2024/03/14 02:15:56;;;;;;;16.35;8.18;;;7.40;99.90;;;6.69;100.00;100784.06;4136269;28;20037;-68
2024/03/14 02:17:57;;;;;;;15.73;8.52;;;7.40;99.90;;;6.69;100.00;100784.91;4135980;28;20483;-68
2024/03/14 02:19:58;;;;;;;14.48;8.88;;;7.30;99.90;;;6.68;100.00;100775.41;4135775;28;20034;-68
2024/03/14 02:22:02;;;;;;;15.88;9.93;;;7.30;99.90;;;6.64;100.00;100776.63;4136057;28;20053;-68
2024/03/14 02:24:03;;;;;;;13.90;8.75;;;7.30;99.90;;;6.68;100.00;100775.41;4135968;28;20037;-68
2024/03/14 02:26:06;;;;;;;12.18;8.05;;;7.30;99.90;;;6.65;100.00;100773.03;4134727;28;20034;-68
2024/03/14 02:28:07;;;;;;;14.93;9.18;;;7.30;99.90;;;6.62;100.00;100764.59;4135903;28;20525;-69
2024/03/14 02:30:09;;;;;;;14.35;9.50;;;7.30;99.90;;;6.63;100.00;100776.75;4134901;28;20026;-68
2024/03/14 02:32:09;;;;;;;14.48;9.15;;;7.30;99.90;;;6.58;100.00;100764.03;4135480;28;20030;-68
2024/03/14 02:34:10;;;;;;;14.55;7.82;;;7.30;99.90;;;6.59;100.00;100765.69;4135739;28;20034;-69
2024/03/14 02:36:11;;;;;;;11.73;8.30;;;7.30;99.90;;;6.57;100.00;100766.78;4134588;28;20033;-68
2024/03/14 02:38:12;;;;;;;15.82;8.80;;;7.20;99.90;;;6.52;100.00;100764.53;4136158;28;20037;-68
2024/03/14 02:40:13;;;;;;;18.52;9.88;;;7.20;99.90;;;6.51;100.00;100757.63;4139406;28;20018;-68
2024/03/14 02:42:14;;;;;;;16.13;9.60;;;7.20;99.90;;;6.48;100.00;100752.66;4139196;28;20082;-68
2024/03/14 02:44:18;;;;;;;15.75;9.07;;;7.10;99.90;;;6.50;100.00;100758.63;4137956;28;20030;-68
2024/03/14 02:46:19;;;;;;;17.67;10.57;;;7.10;99.90;;;6.48;100.00;100757.88;4139305;28;20379;-68
2024/03/14 02:48:20;;;;;;;16.20;10.20;;;7.10;99.90;;;6.47;100.00;100748.38;4137828;28;20030;-68
2024/03/14 02:50:22;;;;;;;12.75;9.25;;;7.10;99.90;;;6.48;100.00;100751.84;4121745;28;20503;-68
2024/03/14 02:52:23;;;;;;;11.13;7.82;;;7.10;99.90;;;6.45;100.00;100741.63;4138874;28;20026;-68
2024/03/14 02:54:24;;;;;;;14.55;9.02;;;7.10;99.90;;;6.43;100.00;100746.97;4139067;28;20034;-68
2024/03/14 02:56:25;;;;;;;16.67;9.65;;;7.10;99.90;;;6.45;100.00;100746.88;4139053;28;20106;-68
2024/03/14 02:58:26;;;;;;;16.48;10.35;;;7.10;99.90;;;6.44;100.00;100746.03;4138873;28;20046;-68
2024/03/14 03:00:27;;;;;;;15.50;10.55;;;7.00;99.90;;;6.43;100.00;100744.34;4138970;28;20030;-68
2024/03/14 03:02:28;;;;;;;18.30;10.05;;;7.10;99.90;;;6.41;100.00;100746.28;4121566;28;20530;-68
2024/03/14 03:04:30;;;;;;;13.02;9.43;;;7.10;99.90;;;6.39;100.00;100739.53;4138933;28;20478;-68
2024/03/14 03:06:33;;;;;;;18.33;10.10;;;7.10;99.90;;;6.36;100.00;100735.34;4136632;28;20549;-68
2024/03/14 03:08:34;;;;;;;18.10;9.93;;;7.00;99.90;;;6.38;100.00;100737.84;4138649;28;20121;-68
2024/03/14 03:10:34;;;;;;;13.27;8.52;;;7.00;99.90;;;6.34;100.00;100734.66;4139054;28;20022;-68
2024/03/14 03:12:41;;;;;;;17.17;9.77;;;7.00;99.90;;;6.32;100.00;100731.34;4138836;28;20030;-68
2024/03/14 03:14:42;;;;;;;14.38;7.97;;;7.00;99.90;;;6.29;100.00;100733.38;4138757;28;20113;-69
2024/03/14 03:16:44;;;;;;;15.63;10.23;;;7.00;99.90;;;6.22;100.00;100729.59;4138442;28;20481;-68
2024/03/14 03:18:45;;;;;;;16.02;9.82;;;6.90;99.90;;;6.21;100.00;100720.94;4138561;28;20033;-68
2024/03/14 03:20:46;;;;;;;16.20;10.35;;;6.90;99.90;;;6.22;100.00;100724.38;4121257;28;20518;-68
2024/03/14 03:23:06;;;;;;;17.38;10.85;;;6.90;99.90;;;6.20;100.00;100715.81;4121141;28;20019;-68
2024/03/14 03:25:09;;;;;;;16.08;8.50;;;6.90;99.90;;;6.18;100.00;100723.81;4124161;28;20038;-68
2024/03/14 03:27:13;;;;;;;15.43;9.15;;;6.80;99.90;;;6.17;100.00;100722.16;4138578;28;20046;-68
2024/03/14 03:29:14;;;;;;;19.45;10.73;;;6.90;99.90;;;6.16;100.00;100720.47;4138571;28;20030;-68
2024/03/14 03:31:15;;;;;;;16.17;10.73;;;6.80;99.90;;;6.18;100.00;100715.97;4120871;28;20042;-68
2024/03/14 03:33:20;;;;;;;16.10;10.00;;;6.80;99.90;;;6.12;100.00;100706.00;4110223;28;20027;-68
2024/03/14 03:35:21;;;;;;;12.98;8.35;;;6.80;99.90;;;6.16;100.00;100712.63;4121647;28;20065;-69
2024/03/14 03:37:24;;;;;;;14.25;9.13;;;6.80;99.90;;;6.16;100.00;100710.00;4137182;28;20086;-69
2024/03/14 03:39:25;;;;;;;19.88;9.68;;;6.80;99.90;;;6.16;100.00;100715.25;4137431;28;20022;-69
2024/03/14 03:41:29;;;;;;;14.70;8.75;;;6.80;99.90;;;6.10;100.00;100700.03;4137082;28;20042;-68
2024/03/14 03:43:30;;;;;;;15.52;9.52;;;6.80;99.90;;;6.07;100.00;100716.00;4138333;28;20441;-68
2024/03/14 03:45:31;;;;;;;16.60;9.63;;;6.70;99.90;;;6.03;100.00;100704.94;4138421;28;20034;-68
2024/03/14 03:47:32;;;;;;;15.57;9.20;;;6.70;99.90;;;6.00;100.00;100704.41;4138103;28;20056;-68
2024/03/14 03:49:34;;;;;;;17.38;8.35;;;6.70;99.90;;;5.94;100.00;100695.25;4136431;28;20502;-68
2024/03/14 03:51:35;;;;;;;13.88;8.65;;;6.60;99.90;;;5.91;100.00;100697.31;4130210;28;20033;-68
2024/03/14 03:53:36;;;;;;;12.70;8.98;;;6.60;99.90;;;5.87;100.00;100693.28;4136981;28;20117;-68
2024/03/14 03:55:37;;;;;;;18.58;9.95;;;6.60;99.90;;;5.84;100.00;100702.19;4138175;28;20045;-68
2024/03/14 03:57:39;;;;;;;12.80;8.35;;;6.50;99.90;;;5.81;100.00;100696.38;4123843;28;20031;-68
2024/03/14 03:59:39;;;;;;;18.17;9.18;;;6.50;99.90;;;5.79;100.00;100690.44;4138168;28;20025;-68
2024/03/14 04:01:41;;;;;;;12.32;8.18;;;6.50;99.90;;;5.79;100.00;100685.19;4138079;28;20629;-68
2024/03/14 04:03:41;;;;;;;14.50;7.95;;;6.40;99.90;;;5.78;100.00;100678.28;4137820;28;20036;-68
2024/03/14 04:05:43;;;;;;;12.15;7.47;;;6.40;99.90;;;5.77;100.00;100676.63;4138124;28;20030;-68
2024/03/14 04:07:44;;;;;;;15.38;7.03;;;6.40;99.90;;;5.77;100.00;100681.88;4136912;28;20062;-68
2024/03/14 04:09:49;;;;;;;17.33;7.75;;;6.40;99.90;;;5.80;100.00;100677.22;4120722;28;20030;-68
2024/03/14 04:11:51;;;;;;;14.18;7.72;;;6.40;99.90;;;5.81;100.00;100681.50;4137851;28;20026;-68
2024/03/14 04:13:53;;;;;;;14.10;7.78;;;6.40;99.90;;;5.78;100.00;100683.53;4137985;28;20041;-68
2024/03/14 04:15:56;;;;;;;18.45;8.82;;;6.40;99.90;;;5.81;100.00;100675.44;4137881;28;20034;-68
2024/03/14 04:17:57;;;;;;;18.27;9.90;;;6.40;99.90;;;5.86;100.00;100670.66;4137725;28;20088;-68
2024/03/14 04:19:59;;;;;;;20.98;9.88;;;6.40;99.90;;;5.87;100.00;100674.94;4137397;28;20045;-68
2024/03/14 04:22:01;;;;;;;16.00;8.73;;;6.50;99.90;;;5.88;100.00;100674.84;4137609;28;20034;-69
2024/03/14 04:24:02;;;;;;;11.88;7.43;;;6.50;99.90;;;5.90;100.00;100672.91;4136552;28;20037;-69
2024/03/14 04:26:03;;;;;;;12.63;7.95;;;6.50;99.90;;;5.87;100.00;100672.34;4137682;28;20018;-68
2024/03/14 04:28:07;;;;;;;15.23;7.97;;;6.50;99.90;;;5.86;100.00;100678.50;4138127;28;20049;-68
2024/03/14 04:30:17;;;;;;;13.18;7.15;;;6.50;99.90;;;5.83;100.00;100676.13;4153885;28;20026;-68
2024/03/14 04:32:18;;;;;;;16.67;7.53;;;6.50;99.90;;;5.79;100.00;100670.34;4141750;28;20054;-68
2024/03/14 04:34:20;;;;;;;10.75;7.38;;;6.50;99.90;;;5.79;100.00;100672.94;4117515;28;20146;-68
2024/03/14 04:36:21;;;;;;;14.43;7.97;;;6.50;99.90;;;5.78;100.00;100670.44;4120413;28;20031;-68
2024/03/14 04:38:23;;;;;;;15.90;8.98;;;6.50;99.90;;;5.79;100.00;100672.13;4134924;28;20445;-68
2024/03/14 04:40:24;;;;;;;13.90;8.57;;;6.40;99.90;;;5.77;100.00;100666.16;4137590;28;20030;-68
2024/03/14 04:42:25;;;;;;;13.10;8.10;;;6.40;99.90;;;5.77;100.00;100677.47;4136168;28;20498;-68
2024/03/14 04:44:26;;;;;;;31.25;8.77;;;6.40;99.90;;;5.76;100.00;100669.75;4137492;28;20375;-68
2024/03/14 04:46:27;;;;;;;13.25;8.27;;;6.40;99.90;;;5.78;100.00;100668.66;4136254;28;20025;-68
2024/03/14 04:48:29;;;;;;;14.10;7.70;;;6.40;99.90;;;5.76;100.00;100670.59;4137035;28;20023;-68
2024/03/14 04:50:30;;;;;;;17.35;9.32;;;6.40;99.90;;;5.75;100.00;100663.69;4137182;28;20050;-68
2024/03/14 04:52:31;;;;;;;15.80;8.23;;;6.40;99.90;;;5.76;100.00;100661.91;4137315;28;20038;-68
2024/03/14 04:54:32;;;;;;;16.33;8.55;;;6.40;99.90;;;5.75;100.00;100663.69;4136040;28;20033;-68
2024/03/14 04:56:33;;;;;;;13.95;7.78;;;6.40;99.90;;;5.73;100.00;100655.13;4137218;28;20034;-68
2024/03/14 04:58:37;;;;;;;16.38;7.75;;;6.40;99.90;;;5.75;100.00;100652.38;4137065;28;20030;-68
2024/03/14 05:00:38;;;;;;;14.40;8.00;;;6.40;99.90;;;5.77;100.00;100658.31;4136643;28;20030;-68
2024/03/14 05:02:39;;;;;;;12.15;7.63;;;6.40;99.90;;;5.78;100.00;100652.13;4135805;28;20088;-68
2024/03/14 05:04:39;;;;;;;13.13;8.20;;;6.40;99.90;;;5.81;100.00;100654.50;4135724;28;20089;-68
2024/03/14 05:06:45;;;;;;;14.30;7.72;;;6.40;99.90;;;5.85;100.00;100653.28;4137012;28;20027;-68
2024/03/14 05:08:46;;;;;;;12.40;8.63;;;6.50;99.90;;;5.86;100.00;100660.19;4124674;28;20033;-68
2024/03/14 05:10:47;;;;;;;13.43;8.23;;;6.50;99.90;;;5.84;100.00;100652.44;4135795;28;20026;-68
2024/03/14 05:12:48;;;;;;;14.43;7.18;;;6.50;99.90;;;5.87;100.00;100656.63;4119721;28;20026;-69
2024/03/14 05:14:49;;;;;;;15.07;8.32;;;6.50;99.90;;;5.87;100.00;100656.63;4136810;28;20034;-68
2024/03/14 05:16:50;;;;;;;15.80;8.73;;;6.60;99.90;;;5.84;100.00;100646.38;4136919;28;20394;-69
2024/03/14 05:18:51;;;;;;;17.33;8.32;;;6.50;99.90;;;5.85;100.00;100648.06;4119463;28;20031;-68
2024/03/14 05:20:53;;;;;;;13.95;8.25;;;6.50;99.90;;;5.85;100.00;100642.81;4136812;28;20034;-68
2024/03/14 05:22:56;;;;;;;13.07;8.20;;;6.50;99.90;;;5.91;100.00;100652.81;4136759;28;20026;-68
2024/03/14 05:25:06;;;;;;;14.45;8.05;;;6.50;99.90;;;5.89;100.00;100644.22;4136872;28;20030;-68
2024/03/14 05:27:08;;;;;;;12.80;7.85;;;6.60;99.90;;;5.88;100.00;100643.44;4135733;28;20034;-68
2024/03/14 05:29:09;;;;;;;12.95;7.38;;;6.60;99.90;;;5.86;100.00;100637.47;4135395;28;20030;-68
2024/03/14 05:31:10;;;;;;;14.20;7.55;;;6.50;99.90;;;5.92;100.00;100638.75;4136423;28;20565;-68
2024/03/14 05:33:11;;;;;;;14.13;7.43;;;6.60;99.90;;;5.92;100.00;100641.34;4136514;28;20031;-68
2024/03/14 05:35:12;;;;;;;11.60;6.25;;;6.60;99.90;;;5.91;100.00;100640.53;4136715;28;20396;-68
2024/03/14 05:37:14;;;;;;;11.82;7.55;;;6.60;99.90;;;5.89;100.00;100636.38;4136575;28;20037;-68
2024/03/14 05:39:15;;;;;;;14.55;7.47;;;6.60;99.90;;;5.91;100.00;100642.34;4119492;28;20030;-68
2024/03/14 05:41:16;;;;;;;13.32;6.88;;;6.60;99.90;;;5.90;100.00;100641.50;4136653;28;20030;-68
2024/03/14 05:43:17;;;;;;;12.98;7.07;;;6.60;99.90;;;5.89;100.00;100644.22;4136499;28;20034;-68
2024/03/14 05:45:20;;;;;;;10.90;7.28;;;6.60;99.90;;;5.90;100.00;100640.66;4136576;28;20034;-68
2024/03/14 05:47:21;;;;;;;10.80;7.55;;;6.60;99.90;;;5.94;100.00;100652.56;4135414;28;20026;-68
2024/03/14 05:49:22;;;;;;;11.02;7.28;;;6.60;99.90;;;5.93;100.00;100646.47;4136347;28;20398;-68
2024/03/14 05:51:23;;;;;;;11.60;7.75;;;6.60;99.90;;;5.97;100.00;100653.09;4136470;28;20076;-68
2024/03/14 05:53:28;;;;;;;12.20;7.57;;;6.70;99.90;;;6.05;100.00;100655.91;4135112;28;20030;-68
2024/03/14 05:55:32;;;;;;;18.48;8.90;;;6.80;99.90;;;6.13;100.00;100650.03;4136483;28;20065;-68
2024/03/14 05:57:33;;;;;;;13.27;8.77;;;6.80;99.90;;;6.22;100.00;100653.66;4135220;28;20042;-68
2024/03/14 05:59:36;;;;;;;15.32;8.23;;;6.90;99.90;;;6.25;100.00;100648.97;4136374;28;20033;-68
2024/03/14 06:01:38;;;;;;;12.60;7.93;;;6.90;99.90;;;6.29;100.00;100655.63;4135331;28;20038;-68
2024/03/14 06:03:42;;;;;;;12.77;7.20;;;7.00;99.90;;;6.33;100.00;100650.97;4135890;28;20026;-68
2024/03/14 06:05:43;;;;;;;17.42;8.40;;;7.00;99.90;;;6.35;100.00;100647.25;4136426;28;20105;-68
2024/03/14 06:07:44;;;;;;;12.30;7.07;;;7.00;99.90;;;6.38;100.00;100652.22;4126031;28;20533;-68
2024/03/14 06:09:47;;;;;;;11.15;7.28;;;7.00;99.90;;;6.42;100.00;100648.38;4136177;28;20093;-68
2024/03/14 06:11:48;;;;;;;9.20;6.97;;;7.10;99.90;;;6.40;100.00;100638.97;4136048;28;20021;-68
2024/03/14 06:13:50;;;;;;;11.88;6.93;;;7.10;99.90;;;6.45;100.00;100639.44;4134809;28;20038;-68
2024/03/14 06:15:51;;;;;;;10.93;7.90;;;7.10;99.90;;;6.46;100.00;100633.22;4136102;28;20117;-68
2024/03/14 06:17:52;;;;;;;16.02;8.48;;;7.10;99.90;;;6.49;100.00;100646.88;4136209;28;20030;-68
2024/03/14 06:19:53;;;;;;;14.32;7.57;;;7.10;99.90;;;6.45;100.00;100645.47;4135776;28;20097;-68
2024/03/14 06:21:56;;;;;;;12.52;8.05;;;7.10;99.90;;;6.47;100.00;100633.09;4136266;28;20490;-68
2024/03/14 06:23:57;;;;;;;14.98;8.02;;;7.10;99.90;;;6.47;100.00;100640.97;4136021;28;20026;-68
2024/03/14 06:26:00;;;;;;;14.75;8.02;;;7.10;99.90;;;6.51;100.00;100647.56;4136119;28;20037;-68
2024/03/14 06:28:02;;;;;;;14.52;8.57;;;7.20;99.90;;;6.51;100.00;100644.94;4134726;28;20018;-68
2024/03/14 06:30:09;;;;;;;15.00;7.53;;;7.20;99.90;;;6.51;100.00;100634.47;4135873;28;20398;-68
2024/03/14 06:32:09;;;;;;;11.98;6.78;;;7.20;99.90;;;6.52;100.00;100638.75;4133680;28;20046;-68
2024/03/14 06:34:10;;;;;;;14.43;8.50;;;7.20;99.90;;;6.53;100.00;100643.06;4119846;28;20024;-68
2024/03/14 06:36:12;;;;;;;12.40;7.53;;;7.20;99.90;;;6.54;100.00;100647.31;4119797;28;20034;-68
2024/03/14 06:38:14;;;;;;;12.02;7.32;;;7.20;99.90;;;6.58;100.00;100645.25;4118717;28;20098;-68
2024/03/14 06:40:15;;;;;;;11.73;7.60;;;7.30;99.90;;;6.61;100.00;100653.69;4119570;28;20027;-68
2024/03/14 06:42:17;;;;;;;13.68;7.22;;;7.30;99.90;;;6.66;100.00;100645.41;4134582;28;20565;-68
2024/03/14 06:44:18;;;;;;;11.73;6.95;;;7.30;99.90;;;6.69;100.00;100645.97;4119934;28;20081;-68
2024/03/14 06:46:23;;;;;;;11.20;6.57;;;7.40;99.90;;;6.79;100.00;100653.06;4119966;28;20102;-67
2024/03/14 06:48:24;;;;;;;14.55;7.47;;;7.40;99.90;;;6.88;100.00;100654.88;4119718;28;20023;-68
2024/03/14 06:50:25;;;;;;;16.88;8.07;;;7.50;99.90;;;6.96;100.00;100655.03;4119738;28;20501;-68
2024/03/14 06:52:29;;;;;;;11.40;7.13;;;7.60;99.90;;;7.03;100.00;100643.88;4119880;28;20435;-67
2024/03/14 06:54:30;;;;;;;12.05;7.07;;;7.60;99.90;;;7.09;100.00;100645.09;4119723;28;20023;-67
2024/03/14 06:56:31;;;;;;;11.18;6.97;;;7.70;99.90;;;7.19;100.00;100653.84;4119778;28;20038;-67
2024/03/14 06:58:33;;;;;;;11.40;6.97;;;7.80;99.90;;;7.24;100.00;100647.22;4117795;28;20027;-67
2024/03/14 07:00:34;;;;;;;10.20;7.10;;;7.90;99.90;;;7.35;100.00;100643.59;4118635;28;20102;-68
2024/03/14 07:02:38;;;;;;;12.85;6.47;;;7.90;99.90;;;7.40;100.00;100649.28;4119695;28;20045;-67
2024/03/14 07:04:39;;;;;;;12.55;7.38;;;8.00;99.90;;;7.45;100.00;100652.31;4134253;28;20023;-67
2024/03/14 07:06:41;;;;;;;11.68;7.32;;;8.10;99.90;;;7.53;100.00;100652.44;4119618;28;20380;-67
2024/03/14 07:08:43;;;;;;;15.20;7.90;;;8.10;99.90;;;7.57;100.00;100642.50;4119608;28;20023;-68
2024/03/14 07:10:43;;;;;;;15.95;7.22;;;8.20;99.90;;;7.64;100.00;100647.09;4118558;28;20034;-67
2024/03/14 07:12:45;;;;;;;11.52;6.68;;;8.30;99.90;;;7.73;100.00;100646.25;4119642;28;20483;-68
2024/03/14 07:14:46;;;;;;;8.52;5.43;;;8.40;99.90;;;7.86;100.00;100647.72;4119538;28;20046;-68
2024/03/14 07:16:48;;;;;;;8.18;5.70;;;8.40;99.90;;;7.95;100.00;100636.38;4119672;28;20018;-68
2024/03/14 07:18:55;;;;;;;8.82;5.43;;;8.50;99.90;;;8.07;100.00;100636.06;4119290;28;20087;-68
2024/03/14 07:20:56;;;;;;;7.05;5.43;;;8.60;99.90;;;8.22;100.00;100644.31;4118482;28;20023;-68
2024/03/14 07:22:59;;;;;;;8.80;5.45;;;8.80;99.90;;;8.31;100.00;100639.06;4118374;28;20042;-68
2024/03/14 07:25:01;;;;;;;8.30;5.03;;;8.80;99.90;;;8.42;100.00;100656.47;4119630;28;20070;-69
2024/03/14 07:27:03;;;;;;;7.93;5.63;;;8.90;99.90;;;8.50;100.00;100655.75;4122499;28;20050;-69
2024/03/14 07:29:05;;;;;;;6.03;4.93;;;9.00;99.90;;;8.58;100.00;100646.16;4122672;28;20027;-69
2024/03/14 07:31:06;;;;;;;7.78;5.05;;;9.00;99.90;;;8.66;100.00;100645.44;4136967;28;20128;-69
2024/03/14 07:33:07;;;;;;;8.63;5.25;;;9.20;99.90;;;8.72;100.00;100643.03;4110414;28;20031;-69
2024/03/14 07:35:09;;;;;;;7.82;5.00;;;9.20;99.90;;;8.76;100.00;100633.03;4121277;28;20041;-69
2024/03/14 07:37:12;;;;;;;9.00;5.25;;;9.30;99.90;;;8.83;100.00;100640.22;4121117;28;20027;-69
2024/03/14 07:39:15;;;;;;;9.93;5.47;;;9.30;99.90;;;8.87;100.00;100633.66;4120925;28;20037;-69
2024/03/14 07:41:23;;;;;;;5.95;4.22;;;9.40;99.90;;;8.96;100.00;100639.84;4121210;28;20039;-68
2024/03/14 07:43:23;;;;;;;6.53;4.13;;;9.40;99.90;;;9.02;100.00;100622.66;4122438;28;20035;-68
2024/03/14 07:45:24;;;;;;;6.65;4.60;;;9.50;99.90;;;9.10;100.00;100634.09;4122469;28;20029;-68
2024/03/14 07:47:25;;;;;;;6.85;4.28;;;9.60;99.90;;;9.25;100.00;100629.13;4121071;28;20023;-69
2024/03/14 07:49:26;;;;;;;7.85;4.72;;;9.70;99.90;;;9.34;100.00;100630.88;4122128;28;20093;-69
2024/03/14 07:51:27;;;;;;;7.60;4.72;;;9.80;99.90;;;9.44;100.00;100634.22;4104974;28;20031;-68
2024/03/14 07:53:29;;;;;;;6.55;4.35;;;9.90;99.90;;;9.54;100.00;100628.88;4121741;28;20031;-69
2024/03/14 07:55:30;;;;;;;7.72;4.63;;;10.00;99.90;;;9.63;100.00;100623.53;4121773;28;20406;-69
2024/03/14 07:57:34;;;;;;;7.28;4.10;;;10.00;99.90;;;9.72;100.00;100627.91;4122108;28;20117;-68
2024/03/14 07:59:35;;;;;;;;;;;10.20;99.90;;;9.79;100.00;100634.22;4121446;28;20045;-69
2024/03/14 08:01:36;;;;;;;7.28;4.57;;;10.20;99.90;;;9.92;100.00;100624.06;4136989;28;19909;-70
2024/03/14 08:03:40;;;;;;;5.28;4.38;;;10.40;99.90;;;10.07;100.00;100628.78;4120431;28;20038;-70
2024/03/14 08:05:41;;;;;;;8.90;5.05;;;10.50;99.90;;;10.22;100.00;100627.25;4121764;28;20046;-70
2024/03/14 08:07:43;;;;;;;7.65;4.75;;;10.60;99.90;;;10.33;100.00;100624.38;4121750;28;20019;-70
2024/03/14 08:09:44;;;;;;;7.80;4.72;;;10.70;99.90;;;10.37;100.00;100623.03;4120605;28;20027;-68
2024/03/14 08:11:48;;;;;;;10.38;5.95;;;10.80;99.90;;;10.46;100.00;100627.38;4121761;28;20498;-68
2024/03/14 08:13:51;;;;;;;8.18;5.10;;;10.90;99.90;;;10.51;100.00;100619.84;4122000;28;20034;-69
2024/03/14 08:15:59;;;;;;;8.07;4.55;;;11.00;99.90;;;10.51;100.00;100623.28;4121802;28;20121;-68
2024/03/14 08:18:00;;;;;;;8.57;5.03;;;11.00;99.90;;;10.54;100.00;100624.78;4121598;28;20031;-69
2024/03/14 08:20:07;;;;;;;7.88;4.82;;;11.00;99.90;;;10.53;100.00;100623.97;4121664;28;20027;-68
2024/03/14 08:22:09;;;;;;;7.47;4.70;;;11.10;99.90;;;10.55;100.00;100626.44;4121830;28;20026;-68
2024/03/14 08:24:11;;;;;;;8.63;4.80;;;11.10;99.90;;;10.60;100.00;100626.81;4121794;28;20039;-69
2024/03/14 08:26:12;;;;;;;9.30;5.43;;;11.10;99.90;;;10.60;100.00;100626.81;4121529;28;20033;-68
2024/03/14 08:28:16;;;;;;;9.32;5.35;;;11.10;99.90;;;10.68;100.00;100628.63;4120328;28;20027;-67